createdAt,value
2023-01-17T00:02:13.458Z,24.60
2023-01-17T00:04:59.571Z,25.60
2023-01-17T00:07:46.634Z,23.20
2023-01-17T00:10:21.189Z,22.30
2023-01-17T00:12:50.778Z,23.10
2023-01-17T00:15:20.049Z,24.50
2023-01-17T00:17:48.773Z,25.30
2023-01-17T00:20:38.033Z,24.40
2023-01-17T00:23:26.051Z,21.10
2023-01-17T00:26:02.872Z,21.60
2023-01-17T00:28:36.085Z,22.00
2023-01-17T00:31:05.771Z,23.60
2023-01-17T00:33:33.490Z,23.40
2023-01-17T00:36:01.806Z,22.90
2023-01-17T00:38:31.895Z,23.30
2023-01-17T00:41:11.080Z,24.60
2023-01-17T00:43:57.755Z,24.00
2023-01-17T00:46:44.388Z,24.40
2023-01-17T00:49:30.589Z,24.00
2023-01-17T00:52:17.150Z,24.30
2023-01-17T00:55:03.746Z,27.50
2023-01-17T00:57:50.443Z,25.50
2023-01-17T01:00:37.816Z,26.30
2023-01-17T01:03:29.378Z,25.00
2023-01-17T01:06:15.807Z,27.00
2023-01-17T01:09:02.222Z,29.40
2023-01-17T01:11:48.823Z,26.80
2023-01-17T01:14:35.500Z,31.50
2023-01-17T01:17:21.955Z,27.40
2023-01-17T01:20:08.508Z,30.00
2023-01-17T01:22:55.123Z,27.70
2023-01-17T01:25:41.627Z,28.60
2023-01-17T01:28:32.723Z,29.90
2023-01-17T01:31:20.509Z,31.20
2023-01-17T01:33:48.332Z,34.70
2023-01-17T01:36:16.104Z,28.50
2023-01-17T01:38:43.749Z,28.40
2023-01-17T01:41:11.643Z,28.00
2023-01-17T01:43:51.645Z,31.80
2023-01-17T01:46:29.740Z,29.20
2023-01-17T01:49:11.945Z,34.40
2023-01-17T01:51:42.018Z,39.50
2023-01-17T01:54:18.213Z,29.80
2023-01-17T01:56:46.343Z,29.40
2023-01-17T01:59:16.051Z,31.10
2023-01-17T02:01:43.868Z,29.00
2023-01-17T02:04:12.181Z,31.50
2023-01-17T02:06:43.734Z,28.60
2023-01-17T02:09:12.899Z,31.20
2023-01-17T02:11:41.555Z,28.80
2023-01-17T02:14:15.375Z,31.70
2023-01-17T02:16:56.128Z,36.90
2023-01-17T02:19:42.527Z,31.50
2023-01-17T02:22:47.799Z,38.80
2023-01-17T02:25:41.224Z,33.50
2023-01-17T02:28:25.915Z,28.10
2023-01-17T02:31:02.502Z,27.20
2023-01-17T02:33:52.047Z,28.80
2023-01-17T02:36:29.122Z,27.80
2023-01-17T02:39:07.295Z,29.00
2023-01-17T02:41:37.911Z,31.80
2023-01-17T02:44:08.815Z,30.20
2023-01-17T02:46:50.119Z,28.30
2023-01-17T02:49:20.381Z,32.00
2023-01-17T02:52:12.518Z,35.30
2023-01-17T02:55:01.104Z,30.30
2023-01-17T02:57:50.563Z,30.80
2023-01-17T03:00:31.603Z,32.90
2023-01-17T03:03:27.340Z,35.50
2023-01-17T03:06:11.798Z,32.00
2023-01-17T03:08:41.665Z,28.30
2023-01-17T03:11:10.318Z,32.30
2023-01-17T03:13:38.420Z,32.10
2023-01-17T03:16:10.436Z,26.30
2023-01-17T03:18:39.012Z,43.90
2023-01-17T03:21:06.648Z,27.70
2023-01-17T03:23:34.387Z,30.60
2023-01-17T03:26:02.153Z,31.30
2023-01-17T03:28:29.828Z,30.50
2023-01-17T03:30:57.516Z,33.60
2023-01-17T03:33:25.555Z,42.00
2023-01-17T03:35:54.657Z,29.10
2023-01-17T03:38:22.429Z,32.40
2023-01-17T03:40:50.160Z,31.70
2023-01-17T03:43:17.836Z,31.10
2023-01-17T03:45:49.194Z,29.30
2023-01-17T03:48:16.887Z,28.90
2023-01-17T03:50:44.523Z,26.90
2023-01-17T03:53:12.207Z,34.80
2023-01-17T03:55:39.814Z,31.60
2023-01-17T03:58:07.468Z,30.00
2023-01-17T04:00:36.809Z,29.50
2023-01-17T04:03:04.664Z,28.50
2023-01-17T04:05:32.382Z,28.80
2023-01-17T04:08:00.106Z,24.40
2023-01-17T04:10:27.755Z,25.00
2023-01-17T04:12:55.665Z,27.50
2023-01-17T04:15:23.337Z,28.20
2023-01-17T04:17:51.168Z,34.80
2023-01-17T04:20:29.351Z,25.10
2023-01-17T04:22:57.484Z,28.50
2023-01-17T04:25:25.757Z,29.80
2023-01-17T04:27:53.804Z,37.10
2023-01-17T04:30:21.755Z,28.80
2023-01-17T04:32:49.818Z,25.40
2023-01-17T04:35:17.450Z,26.30
2023-01-17T04:37:45.163Z,22.40
2023-01-17T04:40:13.430Z,22.50
2023-01-17T04:42:41.168Z,19.10
2023-01-17T04:45:09.181Z,19.60
2023-01-17T04:47:36.840Z,19.30
2023-01-17T04:50:04.939Z,20.60
2023-01-17T04:52:32.605Z,20.20
2023-01-17T04:55:00.211Z,21.70
2023-01-17T04:57:27.876Z,20.80
2023-01-17T04:59:55.672Z,20.70
2023-01-17T05:02:23.362Z,22.20
2023-01-17T05:04:51.236Z,18.00
2023-01-17T05:07:18.908Z,19.00
2023-01-17T05:09:47.643Z,17.80
2023-01-17T05:12:15.432Z,17.20
2023-01-17T05:14:43.105Z,18.80
2023-01-17T05:17:11.263Z,18.80
2023-01-17T05:19:39.000Z,22.20
2023-01-17T05:22:14.958Z,20.30
2023-01-17T05:24:44.054Z,18.10
2023-01-17T05:27:12.751Z,19.90
2023-01-17T05:29:40.849Z,20.60
2023-01-17T05:32:08.720Z,19.60
2023-01-17T05:34:36.451Z,17.70
2023-01-17T05:37:04.103Z,18.20
2023-01-17T05:39:31.951Z,17.40
2023-01-17T05:41:59.730Z,17.30
2023-01-17T05:44:27.865Z,21.60
2023-01-17T05:46:56.296Z,19.70
2023-01-17T05:49:24.093Z,23.60
2023-01-17T05:51:54.159Z,17.10
2023-01-17T05:54:22.497Z,23.70
2023-01-17T05:56:50.143Z,19.70
2023-01-17T05:59:25.609Z,15.80
2023-01-17T06:02:03.783Z,15.40
2023-01-17T06:04:31.495Z,15.10
2023-01-17T06:06:59.272Z,14.80
2023-01-17T06:09:26.855Z,13.90
2023-01-17T06:11:54.476Z,13.60
2023-01-17T06:14:22.187Z,14.20
2023-01-17T06:16:49.950Z,14.40
2023-01-17T06:19:17.539Z,13.60
2023-01-17T06:21:45.223Z,15.30
2023-01-17T06:24:12.926Z,13.80
2023-01-17T06:26:40.642Z,14.70
2023-01-17T06:29:08.334Z,13.90
2023-01-17T06:31:36.083Z,14.80
2023-01-17T06:34:04.602Z,14.50
2023-01-17T06:36:35.165Z,13.70
2023-01-17T06:39:02.830Z,12.30
2023-01-17T06:41:30.498Z,12.40
2023-01-17T06:43:58.109Z,11.40
2023-01-17T06:46:25.868Z,11.70
2023-01-17T06:48:53.565Z,11.10
2023-01-17T06:51:21.725Z,10.90
2023-01-17T06:53:49.354Z,10.30
2023-01-17T06:56:17.107Z,10.30
2023-01-17T06:58:49.568Z,11.40
2023-01-17T07:01:18.243Z,10.70
2023-01-17T07:03:46.071Z,10.20
2023-01-17T07:06:13.775Z,10.10
2023-01-17T07:08:41.376Z,10.30
2023-01-17T07:11:09.600Z,10.40
2023-01-17T07:13:38.289Z,10.30
2023-01-17T07:16:07.565Z,9.80
2023-01-17T07:18:36.231Z,9.10
2023-01-17T07:21:04.076Z,9.50
2023-01-17T07:23:31.817Z,10.00
2023-01-17T07:26:00.637Z,9.60
2023-01-17T07:28:28.580Z,10.10
2023-01-17T07:30:56.273Z,9.90
2023-01-17T07:33:23.940Z,9.70
2023-01-17T07:35:51.571Z,10.00
2023-01-17T07:38:20.102Z,10.00
2023-01-17T07:40:47.749Z,9.70
2023-01-17T07:43:15.436Z,10.40
2023-01-17T07:45:44.518Z,9.40
2023-01-17T07:48:12.827Z,10.30
2023-01-17T07:50:40.555Z,9.10
2023-01-17T07:53:08.739Z,10.20
2023-01-17T07:55:36.428Z,10.00
2023-01-17T07:58:04.062Z,9.30
2023-01-17T08:00:31.702Z,9.60
2023-01-17T08:03:01.118Z,9.60
2023-01-17T08:05:30.896Z,9.60
2023-01-17T08:07:58.541Z,9.70
2023-01-17T08:10:26.250Z,10.20
2023-01-17T08:12:53.918Z,9.90
2023-01-17T08:15:21.827Z,9.40
2023-01-17T08:17:53.944Z,8.90
2023-01-17T08:20:21.608Z,9.40
2023-01-17T08:22:53.423Z,9.40
2023-01-17T08:25:21.870Z,10.10
2023-01-17T08:27:49.660Z,10.30
2023-01-17T08:30:18.471Z,10.30
2023-01-17T08:32:46.185Z,10.70
2023-01-17T08:35:14.322Z,10.10
2023-01-17T08:37:41.966Z,10.30
2023-01-17T08:40:11.228Z,9.60
2023-01-17T08:42:41.539Z,10.30
2023-01-17T08:45:10.578Z,9.40
2023-01-17T08:47:38.728Z,9.40
2023-01-17T08:50:06.916Z,10.20
2023-01-17T08:52:34.607Z,9.10
2023-01-17T08:55:03.030Z,10.20
2023-01-17T08:57:31.192Z,9.10
2023-01-17T08:59:59.155Z,8.90
2023-01-17T09:02:26.959Z,9.30
2023-01-17T09:04:55.216Z,8.80
2023-01-17T09:07:24.327Z,8.40
2023-01-17T09:09:52.694Z,9.40
2023-01-17T09:12:22.343Z,8.70
2023-01-17T09:14:50.123Z,9.20
2023-01-17T09:17:17.884Z,8.90
2023-01-17T09:19:48.125Z,8.50
2023-01-17T09:22:15.896Z,8.60
2023-01-17T09:24:43.582Z,9.10
2023-01-17T09:27:11.232Z,8.90
2023-01-17T09:29:38.907Z,8.70
2023-01-17T09:32:06.595Z,7.90
2023-01-17T09:34:34.314Z,7.90
2023-01-17T09:37:02.036Z,8.40
2023-01-17T09:39:29.659Z,8.30
2023-01-17T09:42:22.660Z,7.90
2023-01-17T09:44:54.047Z,7.20
2023-01-17T09:47:53.853Z,7.20
2023-01-17T09:50:33.723Z,7.70
2023-01-17T09:53:04.456Z,7.70
2023-01-17T09:55:40.105Z,7.40
2023-01-17T09:58:14.790Z,7.10
2023-01-17T10:00:59.176Z,7.80
2023-01-17T10:03:43.606Z,7.40
2023-01-17T10:07:08.863Z,7.40
2023-01-17T10:09:43.589Z,7.60
2023-01-17T10:12:20.990Z,7.60
2023-01-17T10:15:07.182Z,8.60
2023-01-17T10:17:43.856Z,8.10
2023-01-17T10:20:36.468Z,7.00
2023-01-17T10:23:45.006Z,7.60
2023-01-17T10:26:17.174Z,8.00
2023-01-17T10:28:48.883Z,7.80
2023-01-17T10:31:19.211Z,7.70
2023-01-17T10:33:57.041Z,8.30
2023-01-17T10:36:30.849Z,7.80
2023-01-17T10:39:04.885Z,8.20
2023-01-17T10:41:39.593Z,8.20
2023-01-17T10:44:17.355Z,8.80
2023-01-17T10:46:54.802Z,9.10
2023-01-17T10:49:25.300Z,8.70
2023-01-17T10:52:16.674Z,8.20
2023-01-17T10:54:54.013Z,8.90
2023-01-17T10:57:24.142Z,9.10
2023-01-17T10:59:52.575Z,13.00
2023-01-17T11:02:28.146Z,9.40
2023-01-17T11:04:57.408Z,8.80
2023-01-17T11:07:27.431Z,8.50
2023-01-17T11:09:57.062Z,8.80
2023-01-17T11:12:39.802Z,9.00
2023-01-17T11:15:10.535Z,9.80
2023-01-17T11:17:48.960Z,9.00
2023-01-17T11:20:48.067Z,8.50
2023-01-17T11:23:22.960Z,8.40
2023-01-17T11:26:02.470Z,8.70
2023-01-17T11:28:32.782Z,9.10
2023-01-17T11:31:08.993Z,9.40
2023-01-17T11:33:45.201Z,8.60
2023-01-17T11:36:42.429Z,8.30
2023-01-17T11:39:18.795Z,7.70
2023-01-17T11:41:47.834Z,8.20
2023-01-17T11:44:31.494Z,7.70
2023-01-17T11:47:12.750Z,7.50
2023-01-17T11:49:42.778Z,7.70
2023-01-17T11:52:19.185Z,7.10
2023-01-17T11:54:48.477Z,7.20
2023-01-17T11:57:34.407Z,6.90
2023-01-17T12:00:20.225Z,6.40
2023-01-17T12:03:06.459Z,6.40
2023-01-17T12:05:56.515Z,6.00
2023-01-17T12:08:30.521Z,7.20
2023-01-17T12:11:19.120Z,6.90
2023-01-17T12:14:01.965Z,7.20
2023-01-17T12:16:48.866Z,6.50
2023-01-17T12:19:28.661Z,5.90
2023-01-17T12:22:19.283Z,7.20
2023-01-17T12:24:51.409Z,6.80
2023-01-17T12:27:29.322Z,8.60
2023-01-17T12:30:11.889Z,7.00
2023-01-17T12:33:00.504Z,5.50
2023-01-17T12:35:33.577Z,5.40
2023-01-17T12:38:06.179Z,6.40
2023-01-17T12:40:42.764Z,5.50
2023-01-17T12:43:13.448Z,5.90
2023-01-17T12:45:43.895Z,5.50
2023-01-17T12:48:22.296Z,5.80
2023-01-17T12:50:58.565Z,5.80
2023-01-17T12:53:41.022Z,6.30
2023-01-17T12:56:14.122Z,6.40
2023-01-17T12:58:45.857Z,7.70
2023-01-17T13:01:17.519Z,6.10
2023-01-17T13:04:16.460Z,6.60
2023-01-17T13:06:59.900Z,7.10
2023-01-17T13:09:46.308Z,6.10
2023-01-17T13:12:16.794Z,5.80
2023-01-17T13:14:47.645Z,6.10
2023-01-17T13:17:45.063Z,6.50
2023-01-17T13:20:22.718Z,6.40
2023-01-17T13:22:51.732Z,5.90
2023-01-17T13:25:41.253Z,6.10
2023-01-17T13:28:23.069Z,11.10
2023-01-17T13:30:59.121Z,18.10
2023-01-17T13:33:43.787Z,7.90
2023-01-17T13:36:34.080Z,7.20
2023-01-17T13:39:21.307Z,6.90
2023-01-17T13:42:27.377Z,8.30
2023-01-17T13:44:56.656Z,7.60
2023-01-17T13:47:32.163Z,6.70
2023-01-17T13:49:59.880Z,7.30
2023-01-17T13:52:33.190Z,6.60
2023-01-17T13:55:05.442Z,6.30
2023-01-17T13:57:43.533Z,6.10
2023-01-17T14:00:21.891Z,6.00
2023-01-17T14:02:51.376Z,6.00
2023-01-17T14:05:31.605Z,8.50
2023-01-17T14:08:05.305Z,7.00
2023-01-17T14:10:39.279Z,6.80
2023-01-17T14:13:34.674Z,6.00
2023-01-17T14:16:05.725Z,5.20
2023-01-17T14:18:38.613Z,5.10
2023-01-17T14:21:27.566Z,5.20
2023-01-17T14:23:59.951Z,5.20
2023-01-17T14:26:29.239Z,4.90
2023-01-17T14:28:58.947Z,5.30
2023-01-17T14:31:27.151Z,5.20
2023-01-17T14:33:54.871Z,160.90
2023-01-17T14:36:25.805Z,18.10
2023-01-17T14:38:53.668Z,6.60
2023-01-17T14:41:30.687Z,5.80
2023-01-17T14:43:59.973Z,6.10
2023-01-17T14:46:31.058Z,6.20
2023-01-17T14:49:01.690Z,5.90
2023-01-17T14:51:35.020Z,6.30
2023-01-17T14:54:06.300Z,5.90
2023-01-17T14:56:33.967Z,5.80
2023-01-17T14:59:06.509Z,6.90
2023-01-17T15:01:36.252Z,7.80
2023-01-17T15:04:04.249Z,7.40
2023-01-17T15:06:40.386Z,6.90
2023-01-17T15:09:10.545Z,6.40
2023-01-17T15:11:38.642Z,6.90
2023-01-17T15:14:06.906Z,6.80
2023-01-17T15:16:38.124Z,7.10
2023-01-17T15:19:14.152Z,7.10
2023-01-17T15:21:43.190Z,7.60
2023-01-17T15:24:20.780Z,7.80
2023-01-17T15:26:49.191Z,7.50
2023-01-17T15:29:22.365Z,8.00
2023-01-17T15:31:54.100Z,8.70
2023-01-17T15:34:45.156Z,8.70
2023-01-17T15:37:33.723Z,8.60
2023-01-17T15:40:07.488Z,8.80
2023-01-17T15:42:36.943Z,7.60
2023-01-17T15:45:06.887Z,7.60
2023-01-17T15:47:39.938Z,8.70
2023-01-17T15:50:24.621Z,9.00
2023-01-17T15:52:55.153Z,8.70
2023-01-17T15:55:27.511Z,8.20
2023-01-17T15:57:55.351Z,8.10
2023-01-17T16:00:32.409Z,7.50
2023-01-17T16:03:00.288Z,7.50
2023-01-17T16:05:32.807Z,8.30
2023-01-17T16:08:04.327Z,8.40
2023-01-17T16:10:37.996Z,9.00
2023-01-17T16:13:07.559Z,9.10
2023-01-17T16:15:36.629Z,8.90
2023-01-17T16:18:10.842Z,9.70
2023-01-17T16:20:44.880Z,27.80
2023-01-17T16:23:12.719Z,10.00
2023-01-17T16:25:40.388Z,9.60
2023-01-17T16:28:08.124Z,9.10
2023-01-17T16:30:36.062Z,9.10
2023-01-17T16:33:04.368Z,9.00
2023-01-17T16:35:33.955Z,8.80
2023-01-17T16:38:04.766Z,9.50
2023-01-17T16:40:38.507Z,9.90
2023-01-17T16:43:06.540Z,10.20
2023-01-17T16:45:42.298Z,9.90
2023-01-17T16:48:11.944Z,9.90
2023-01-17T16:50:48.155Z,9.20
2023-01-17T16:53:17.729Z,8.90
2023-01-17T16:55:45.403Z,8.50
2023-01-17T16:58:13.064Z,8.80
2023-01-17T17:00:40.773Z,8.30
2023-01-17T17:03:18.176Z,9.10
2023-01-17T17:05:55.147Z,9.20
2023-01-17T17:08:24.091Z,10.00
2023-01-17T17:10:51.999Z,9.30
2023-01-17T17:13:20.242Z,8.70
2023-01-17T17:15:48.741Z,9.10
2023-01-17T17:18:17.780Z,8.80
2023-01-17T17:20:46.274Z,8.70
2023-01-17T17:23:13.951Z,9.60
2023-01-17T17:25:41.681Z,8.90
2023-01-17T17:28:10.287Z,11.00
2023-01-17T17:30:37.993Z,11.50
2023-01-17T17:33:05.703Z,12.90
2023-01-17T17:35:34.919Z,12.30
2023-01-17T17:38:02.596Z,12.40
2023-01-17T17:40:30.217Z,14.20
2023-01-17T17:42:57.870Z,13.70
2023-01-17T17:45:25.513Z,14.70
2023-01-17T17:47:53.476Z,15.70
2023-01-17T17:50:21.348Z,14.90
2023-01-17T17:52:49.089Z,13.70
2023-01-17T17:55:19.022Z,14.30
2023-01-17T17:57:46.817Z,14.90
2023-01-17T18:00:14.867Z,14.20
2023-01-17T18:02:42.579Z,14.30
2023-01-17T18:05:10.505Z,18.00
2023-01-17T18:07:38.195Z,13.60
2023-01-17T18:10:07.843Z,13.80
2023-01-17T18:12:35.453Z,13.70
2023-01-17T18:15:03.266Z,14.70
2023-01-17T18:17:31.013Z,18.50
2023-01-17T18:19:59.713Z,13.30
2023-01-17T18:22:27.362Z,15.80
2023-01-17T18:24:55.043Z,14.10
2023-01-17T18:27:22.663Z,14.50
2023-01-17T18:29:51.390Z,15.30
2023-01-17T18:32:19.116Z,14.30
2023-01-17T18:34:47.527Z,16.70
2023-01-17T18:37:15.412Z,15.90
2023-01-17T18:39:43.795Z,15.70
2023-01-17T18:42:11.967Z,16.40
2023-01-17T18:44:39.727Z,17.40
2023-01-17T18:47:07.619Z,26.30
2023-01-17T18:49:35.447Z,17.70
2023-01-17T18:52:03.224Z,19.00
2023-01-17T18:54:31.973Z,16.10
2023-01-17T18:56:59.812Z,16.30
2023-01-17T18:59:27.571Z,16.20
2023-01-17T19:01:55.975Z,17.80
2023-01-17T19:04:23.706Z,19.40
2023-01-17T19:06:53.349Z,16.80
2023-01-17T19:09:22.342Z,19.20
2023-01-17T19:11:51.367Z,16.50
2023-01-17T19:14:19.166Z,20.70
2023-01-17T19:16:46.928Z,17.90
2023-01-17T19:19:15.624Z,18.60
2023-01-17T19:21:43.636Z,19.00
2023-01-17T19:24:14.275Z,20.30
2023-01-17T19:26:43.011Z,18.40
2023-01-17T19:29:12.222Z,18.10
2023-01-17T19:31:43.160Z,19.00
2023-01-17T19:34:13.904Z,21.30
2023-01-17T19:36:42.631Z,23.50
2023-01-17T19:39:10.637Z,21.70
2023-01-17T19:41:42.491Z,23.50
2023-01-17T19:44:13.042Z,19.20
2023-01-17T19:47:01.570Z,23.90
2023-01-17T19:49:29.308Z,20.30
2023-01-17T19:51:56.947Z,22.70
2023-01-17T19:54:24.671Z,21.60
2023-01-17T19:56:52.361Z,21.50
2023-01-17T19:59:20.055Z,21.90
2023-01-17T20:01:48.672Z,22.40
2023-01-17T20:04:19.571Z,24.50
2023-01-17T20:06:47.288Z,25.70
2023-01-17T20:09:14.968Z,24.10
2023-01-17T20:11:43.100Z,23.30
2023-01-17T20:14:13.571Z,25.20
2023-01-17T20:16:41.260Z,24.80
2023-01-17T20:19:08.945Z,37.20
2023-01-17T20:21:36.653Z,35.70
2023-01-17T20:24:04.806Z,36.50
2023-01-17T20:26:35.027Z,42.10
2023-01-17T20:29:10.832Z,40.60
2023-01-17T20:31:40.308Z,39.50
2023-01-17T20:34:10.777Z,33.50
2023-01-17T20:36:39.703Z,40.40
2023-01-17T20:39:08.769Z,48.40
2023-01-17T20:41:40.569Z,38.50
2023-01-17T20:44:12.780Z,39.00
2023-01-17T20:46:41.525Z,35.50
2023-01-17T20:49:18.818Z,31.80
2023-01-17T20:51:46.782Z,26.90
2023-01-17T20:54:18.536Z,26.20
2023-01-17T20:56:47.569Z,27.60
2023-01-17T20:59:18.168Z,31.30
2023-01-17T21:01:46.604Z,35.90
2023-01-17T21:04:14.814Z,34.90
2023-01-17T21:06:43.786Z,32.90
2023-01-17T21:09:13.322Z,41.00
2023-01-17T21:11:41.223Z,33.80
2023-01-17T21:14:09.162Z,33.80
2023-01-17T21:16:36.961Z,37.80
2023-01-17T21:19:05.276Z,31.20
2023-01-17T21:21:32.931Z,37.20
2023-01-17T21:24:00.544Z,40.10
2023-01-17T21:26:28.693Z,33.30
2023-01-17T21:28:58.206Z,34.60
2023-01-17T21:31:28.636Z,35.80
2023-01-17T21:34:01.526Z,37.50
2023-01-17T21:36:37.414Z,36.90
2023-01-17T21:39:11.334Z,34.30
2023-01-17T21:41:40.227Z,38.20
2023-01-17T21:44:12.376Z,39.30
2023-01-17T21:46:41.129Z,37.30
2023-01-17T21:49:13.163Z,40.90
2023-01-17T21:52:02.892Z,48.40
2023-01-17T21:54:49.558Z,48.60
2023-01-17T21:57:38.521Z,48.70
2023-01-17T22:00:09.813Z,48.00
2023-01-17T22:02:40.956Z,47.90
2023-01-17T22:05:10.120Z,48.10
2023-01-17T22:07:40.569Z,49.20
2023-01-17T22:10:08.965Z,49.00
2023-01-17T22:12:36.657Z,53.50
2023-01-17T22:15:05.022Z,84.90
2023-01-17T22:17:32.687Z,69.60
2023-01-17T22:20:00.393Z,73.70
2023-01-17T22:22:32.349Z,73.30
2023-01-17T22:25:00.067Z,67.10
2023-01-17T22:27:28.691Z,59.40
2023-01-17T22:29:56.405Z,58.40
2023-01-17T22:32:24.314Z,57.00
2023-01-17T22:34:51.993Z,61.10
2023-01-17T22:37:19.646Z,66.30
2023-01-17T22:39:47.277Z,56.20
2023-01-17T22:42:16.646Z,56.70
2023-01-17T22:44:44.353Z,68.30
2023-01-17T22:47:13.296Z,49.00
2023-01-17T22:49:41.589Z,49.10
2023-01-17T22:52:09.301Z,49.50
2023-01-17T22:54:36.932Z,49.80
2023-01-17T22:57:06.221Z,50.60
2023-01-17T22:59:34.074Z,51.00
2023-01-17T23:02:01.822Z,46.20
2023-01-17T23:04:30.038Z,46.10
2023-01-17T23:06:57.762Z,47.60
2023-01-17T23:09:25.675Z,45.50
2023-01-17T23:11:55.059Z,45.40
2023-01-17T23:14:51.801Z,44.00
2023-01-17T23:17:42.721Z,43.80
2023-01-17T23:20:11.380Z,42.90
2023-01-17T23:22:39.838Z,43.50
2023-01-17T23:25:12.566Z,41.50
2023-01-17T23:28:04.416Z,41.60
2023-01-17T23:30:34.496Z,42.70
2023-01-17T23:33:07.964Z,43.80
2023-01-17T23:35:42.054Z,45.60
2023-01-17T23:38:31.282Z,45.60
2023-01-17T23:41:28.068Z,45.00
2023-01-17T23:43:57.671Z,44.60
2023-01-17T23:46:26.581Z,42.70
2023-01-17T23:48:55.239Z,41.20
2023-01-17T23:51:23.218Z,39.10
2023-01-17T23:53:55.172Z,40.20
2023-01-17T23:56:24.672Z,38.90
2023-01-17T23:58:52.443Z,40.40
